createdAt,value
2022-10-14T00:00:10.296Z,12.87
2022-10-14T00:01:10.307Z,12.89
2022-10-14T00:02:10.386Z,12.84
2022-10-14T00:03:10.327Z,12.86
2022-10-14T00:04:10.345Z,12.85
2022-10-14T00:05:10.350Z,12.84
2022-10-14T00:06:10.362Z,12.84
2022-10-14T00:07:10.368Z,12.85
2022-10-14T00:08:10.383Z,12.82
2022-10-14T00:09:10.391Z,12.82
2022-10-14T00:10:10.407Z,12.83
2022-10-14T00:11:10.418Z,12.85
2022-10-14T00:12:10.430Z,12.85
2022-10-14T00:13:10.440Z,12.84
2022-10-14T00:14:10.446Z,12.85
2022-10-14T00:15:10.452Z,12.89
2022-10-14T00:16:10.467Z,12.85
2022-10-14T00:17:10.476Z,12.85
2022-10-14T00:18:10.492Z,12.85
2022-10-14T00:19:10.511Z,12.86
2022-10-14T00:20:10.516Z,12.88
2022-10-14T00:21:10.522Z,12.88
2022-10-14T00:22:10.537Z,12.89
2022-10-14T00:23:10.549Z,12.88
2022-10-14T00:24:10.557Z,12.89
2022-10-14T00:25:10.563Z,12.90
2022-10-14T00:26:10.585Z,12.89
2022-10-14T00:27:10.592Z,12.89
2022-10-14T00:28:10.608Z,12.90
2022-10-14T00:29:10.609Z,12.89
2022-10-14T00:30:10.620Z,12.89
2022-10-14T00:31:10.626Z,12.90
2022-10-14T00:32:10.633Z,12.89
2022-10-14T00:33:10.635Z,12.88
2022-10-14T00:34:10.647Z,12.90
2022-10-14T00:35:10.665Z,12.89
2022-10-14T00:36:10.684Z,12.90
2022-10-14T00:37:10.686Z,12.88
2022-10-14T00:38:10.702Z,12.90
2022-10-14T00:39:10.718Z,12.89
2022-10-14T00:40:10.735Z,12.89
2022-10-14T00:41:10.743Z,12.89
2022-10-14T00:42:10.757Z,12.90
2022-10-14T00:43:10.761Z,12.90
2022-10-14T00:44:10.766Z,12.90
2022-10-14T00:45:10.770Z,12.90
2022-10-14T00:46:10.788Z,12.90
2022-10-14T01:04:11.361Z,12.91
2022-10-14T01:05:11.001Z,12.90
2022-10-14T01:06:11.011Z,12.89
2022-10-14T01:07:11.016Z,12.90
2022-10-14T01:08:11.030Z,12.90
2022-10-14T01:09:11.033Z,12.90
2022-10-14T01:10:11.041Z,12.91
2022-10-14T01:11:11.049Z,12.90
2022-10-14T01:13:11.074Z,12.89
2022-10-14T01:14:11.081Z,12.90
2022-10-14T01:15:11.086Z,12.89
2022-10-14T01:16:11.106Z,12.90
2022-10-14T01:17:11.120Z,12.91
2022-10-14T01:18:11.116Z,12.91
2022-10-14T01:19:11.137Z,12.91
2022-10-14T01:20:11.153Z,12.91
2022-10-14T01:21:11.163Z,12.92
2022-10-14T01:22:11.167Z,12.92
2022-10-14T01:23:11.182Z,12.91
2022-10-14T01:24:11.199Z,12.91
2022-10-14T01:25:11.207Z,12.90
2022-10-14T01:26:11.229Z,12.91
2022-10-14T01:27:11.235Z,12.92
2022-10-14T01:28:11.242Z,12.91
2022-10-14T01:29:11.246Z,12.91
2022-10-14T01:30:11.267Z,12.92
2022-10-14T01:31:11.274Z,12.92
2022-10-14T01:32:11.284Z,12.92
2022-10-14T01:33:11.296Z,12.92
2022-10-14T01:34:11.304Z,12.94
2022-10-14T01:35:11.319Z,12.92
2022-10-14T01:36:11.337Z,12.96
2022-10-14T01:37:11.348Z,12.93
2022-10-14T01:38:11.363Z,12.93
2022-10-14T01:39:11.380Z,12.92
2022-10-14T01:40:11.382Z,12.92
2022-10-14T01:41:11.402Z,12.93
2022-10-14T01:42:11.419Z,12.93
2022-10-14T01:43:11.431Z,12.93
2022-10-14T01:44:11.443Z,12.92
2022-10-14T01:45:11.462Z,12.93
2022-10-14T01:46:11.480Z,12.93
2022-10-14T01:47:11.500Z,12.92
2022-10-14T01:48:11.513Z,12.94
2022-10-14T01:49:11.519Z,12.95
2022-10-14T01:50:11.537Z,12.94
2022-10-14T01:51:11.550Z,12.93
2022-10-14T01:52:11.573Z,12.94
2022-10-14T01:53:11.582Z,12.94
2022-10-14T01:54:11.597Z,12.93
2022-10-14T01:55:11.615Z,12.92
2022-10-14T01:56:11.616Z,12.92
2022-10-14T01:57:11.622Z,12.92
2022-10-14T01:58:11.637Z,12.92
2022-10-14T01:59:11.637Z,12.92
2022-10-14T02:00:11.659Z,12.92
2022-10-14T02:01:11.668Z,12.93
2022-10-14T02:02:11.773Z,12.91
2022-10-14T02:03:11.696Z,12.92
2022-10-14T02:04:11.703Z,12.92
2022-10-14T02:05:11.715Z,12.92
2022-10-14T02:06:11.719Z,12.92
2022-10-14T02:07:11.737Z,12.93
2022-10-14T02:08:11.753Z,12.92
2022-10-14T02:09:11.758Z,12.91
2022-10-14T02:10:11.767Z,12.92
2022-10-14T02:11:11.769Z,12.93
2022-10-14T02:12:11.788Z,12.92
2022-10-14T02:13:11.802Z,12.93
2022-10-14T02:14:11.823Z,12.93
2022-10-14T02:15:11.828Z,12.92
2022-10-14T02:16:11.833Z,12.92
2022-10-14T02:17:11.840Z,12.93
2022-10-14T02:18:11.857Z,12.93
2022-10-14T02:19:11.874Z,12.94
2022-10-14T02:20:11.872Z,12.94
2022-10-14T02:21:11.885Z,12.92
2022-10-14T02:22:11.903Z,12.92
2022-10-14T02:23:11.920Z,12.91
2022-10-14T02:24:11.926Z,12.91
2022-10-14T02:25:11.939Z,12.91
2022-10-14T02:26:11.960Z,12.90
2022-10-14T02:27:11.962Z,12.91
2022-10-14T02:28:11.968Z,12.92
2022-10-14T02:29:11.979Z,12.90
2022-10-14T02:30:11.984Z,12.89
2022-10-14T02:31:12.001Z,12.90
2022-10-14T02:32:12.013Z,12.89
2022-10-14T02:33:12.024Z,12.90
2022-10-14T02:34:12.039Z,12.92
2022-10-14T02:35:12.054Z,12.91
2022-10-14T02:36:12.076Z,12.90
2022-10-14T02:37:12.083Z,12.89
2022-10-14T02:38:13.842Z,12.90
2022-10-14T02:39:12.116Z,12.89
2022-10-14T02:40:12.131Z,12.88
2022-10-14T02:41:12.130Z,12.89
2022-10-14T02:42:12.142Z,12.87
2022-10-14T02:43:12.158Z,12.88
2022-10-14T02:44:12.175Z,12.88
2022-10-14T02:45:12.190Z,12.88
2022-10-14T02:46:12.210Z,12.88
2022-10-14T02:47:12.220Z,12.89
2022-10-14T02:48:12.230Z,12.90
2022-10-14T02:49:12.239Z,12.91
2022-10-14T02:50:12.252Z,12.91
2022-10-14T02:51:12.279Z,12.92
2022-10-14T02:52:12.281Z,12.92
2022-10-14T02:53:12.284Z,12.91
2022-10-14T02:54:12.294Z,12.89
2022-10-14T02:55:12.310Z,12.90
2022-10-14T02:56:12.316Z,12.90
2022-10-14T02:57:12.326Z,12.90
2022-10-14T02:58:12.322Z,12.90
2022-10-14T02:59:12.338Z,12.91
2022-10-14T03:00:12.339Z,12.92
2022-10-14T03:01:12.359Z,12.91
2022-10-14T03:02:12.381Z,12.91
2022-10-14T03:03:12.368Z,12.92
2022-10-14T03:04:12.392Z,12.90
2022-10-14T03:05:12.409Z,12.89
2022-10-14T03:06:12.423Z,12.90
2022-10-14T03:07:12.427Z,12.89
2022-10-14T03:08:12.443Z,12.88
2022-10-14T03:09:12.467Z,12.88
2022-10-14T03:10:12.481Z,12.88
2022-10-14T03:11:12.484Z,12.88
2022-10-14T03:12:12.504Z,12.88
2022-10-14T03:13:12.516Z,12.88
2022-10-14T03:14:12.531Z,12.87
2022-10-14T03:15:12.549Z,12.89
2022-10-14T03:16:12.559Z,12.88
2022-10-14T03:17:12.561Z,12.89
2022-10-14T03:18:12.579Z,12.89
2022-10-14T03:19:12.594Z,12.87
2022-10-14T03:20:12.607Z,12.88
2022-10-14T03:21:12.611Z,12.90
2022-10-14T03:22:12.624Z,12.91
2022-10-14T03:23:12.626Z,12.89
2022-10-14T03:24:12.673Z,12.90
2022-10-14T03:25:12.719Z,12.90
2022-10-14T03:26:14.074Z,12.90
2022-10-14T03:27:12.680Z,12.89
2022-10-14T03:28:12.701Z,12.90
2022-10-14T03:29:12.703Z,12.90
2022-10-14T03:30:12.717Z,12.91
2022-10-14T03:31:12.724Z,12.90
2022-10-14T03:32:12.725Z,12.90
2022-10-14T03:33:14.932Z,12.90
2022-10-14T03:34:12.744Z,12.89
2022-10-14T03:35:12.755Z,12.90
2022-10-14T03:36:12.773Z,12.91
2022-10-14T03:37:12.784Z,12.91
2022-10-14T03:38:12.787Z,12.91
2022-10-14T03:39:12.802Z,12.91
2022-10-14T03:40:12.821Z,12.89
2022-10-14T03:41:12.830Z,12.91
2022-10-14T03:43:12.850Z,12.91
2022-10-14T03:44:12.862Z,12.91
2022-10-14T03:45:12.875Z,12.91
2022-10-14T03:46:12.879Z,12.93
2022-10-14T03:47:12.892Z,12.92
2022-10-14T03:48:12.905Z,12.91
2022-10-14T03:49:12.907Z,12.91
2022-10-14T03:50:12.929Z,12.93
2022-10-14T03:51:12.937Z,12.91
2022-10-14T03:52:12.956Z,12.91
2022-10-14T03:53:12.966Z,12.90
2022-10-14T03:54:12.966Z,12.91
2022-10-14T03:55:12.978Z,12.91
2022-10-14T03:56:12.992Z,12.91
2022-10-14T03:57:13.008Z,12.87
2022-10-14T03:58:13.043Z,12.89
2022-10-14T03:59:13.032Z,12.88
2022-10-14T04:00:13.057Z,12.90
2022-10-14T04:01:13.061Z,12.89
2022-10-14T04:02:13.151Z,12.89
2022-10-14T04:03:13.079Z,12.90
2022-10-14T04:04:13.097Z,12.89
2022-10-14T04:05:13.109Z,12.89
2022-10-14T04:06:13.122Z,12.89
2022-10-14T04:07:13.143Z,12.89
2022-10-14T04:08:13.159Z,12.89
2022-10-14T04:09:13.166Z,12.88
2022-10-14T04:10:13.179Z,12.86
2022-10-14T04:11:13.194Z,12.84
2022-10-14T04:12:13.210Z,12.84
2022-10-14T04:13:13.219Z,12.84
2022-10-14T04:14:13.236Z,12.83
2022-10-14T04:15:13.246Z,12.83
2022-10-14T04:16:13.253Z,12.81
2022-10-14T04:17:13.261Z,12.82
2022-10-14T04:18:13.280Z,12.82
2022-10-14T04:19:13.291Z,12.82
2022-10-14T04:20:13.307Z,12.82
2022-10-14T04:21:13.315Z,12.81
2022-10-14T04:22:13.333Z,12.82
2022-10-14T04:23:13.347Z,12.85
2022-10-14T04:24:13.360Z,12.81
2022-10-14T04:25:13.372Z,12.81
2022-10-14T04:26:13.379Z,12.82
2022-10-14T04:27:13.386Z,12.83
2022-10-14T04:28:13.404Z,12.82
2022-10-14T04:29:13.413Z,12.81
2022-10-14T04:30:13.420Z,12.81
2022-10-14T04:31:13.431Z,12.81
2022-10-14T04:32:13.452Z,12.80
2022-10-14T04:33:13.461Z,12.80
2022-10-14T04:34:13.469Z,12.77
2022-10-14T04:35:13.482Z,12.77
2022-10-14T04:36:13.493Z,12.74
2022-10-14T04:37:13.509Z,12.72
2022-10-14T04:38:13.527Z,12.73
2022-10-14T04:39:13.533Z,12.74
2022-10-14T04:40:13.554Z,12.73
2022-10-14T04:41:13.560Z,12.73
2022-10-14T04:42:13.581Z,12.73
2022-10-14T04:43:13.595Z,12.74
2022-10-14T04:44:13.617Z,12.73
2022-10-14T04:45:13.633Z,12.73
2022-10-14T04:46:13.647Z,12.74
2022-10-14T04:47:13.660Z,12.73
2022-10-14T04:48:13.678Z,12.75
2022-10-14T04:49:13.695Z,12.75
2022-10-14T04:50:13.704Z,12.75
2022-10-14T04:51:13.715Z,12.76
2022-10-14T04:52:13.732Z,12.77
2022-10-14T04:53:14.838Z,12.77
2022-10-14T04:54:13.758Z,12.78
2022-10-14T04:55:13.777Z,12.77
2022-10-14T04:56:13.780Z,12.77
2022-10-14T04:57:13.804Z,12.75
2022-10-14T04:58:13.811Z,12.76
2022-10-14T04:59:13.824Z,12.76
2022-10-14T05:00:13.842Z,12.75
2022-10-14T05:01:13.865Z,12.75
2022-10-14T05:02:13.952Z,12.75
2022-10-14T05:03:13.887Z,12.75
2022-10-14T05:04:13.908Z,12.75
2022-10-14T05:05:13.909Z,12.76
2022-10-14T05:06:13.920Z,12.75
2022-10-14T05:07:13.927Z,12.76
2022-10-14T05:08:13.924Z,12.77
2022-10-14T05:09:13.938Z,12.77
2022-10-14T05:10:13.954Z,12.77
2022-10-14T05:11:13.956Z,12.76
2022-10-14T05:12:13.979Z,12.76
2022-10-14T05:13:13.999Z,12.77
2022-10-14T05:14:14.018Z,12.76
2022-10-14T05:15:14.037Z,12.77
2022-10-14T05:16:14.057Z,12.78
2022-10-14T05:17:14.066Z,12.77
2022-10-14T05:18:14.072Z,12.77
2022-10-14T05:19:14.075Z,12.76
2022-10-14T05:20:14.092Z,12.76
2022-10-14T05:21:14.102Z,12.76
2022-10-14T05:22:14.120Z,12.78
2022-10-14T05:23:14.130Z,12.77
2022-10-14T05:24:14.136Z,12.77
2022-10-14T05:25:14.172Z,12.77
2022-10-14T05:26:14.158Z,12.77
2022-10-14T05:27:14.163Z,12.78
2022-10-14T05:28:14.194Z,12.77
2022-10-14T05:29:14.199Z,12.75
2022-10-14T05:30:14.213Z,12.77
2022-10-14T05:31:14.236Z,12.76
2022-10-14T05:32:14.239Z,12.77
2022-10-14T05:33:14.261Z,12.76
2022-10-14T05:34:14.285Z,12.76
2022-10-14T05:35:14.283Z,12.76
2022-10-14T05:36:14.304Z,12.76
2022-10-14T05:37:14.314Z,12.77
2022-10-14T05:38:14.334Z,12.77
2022-10-14T05:39:14.334Z,12.77
2022-10-14T05:40:14.358Z,12.79
2022-10-14T05:41:14.364Z,12.79
2022-10-14T05:42:14.384Z,12.80
2022-10-14T05:43:14.389Z,12.79
2022-10-14T05:44:14.412Z,12.80
2022-10-14T05:45:14.418Z,12.79
2022-10-14T05:46:14.424Z,12.80
2022-10-14T05:47:14.434Z,12.80
2022-10-14T05:48:14.439Z,12.81
2022-10-14T05:49:14.448Z,12.79
2022-10-14T05:50:14.476Z,12.78
2022-10-14T05:51:14.482Z,12.78
2022-10-14T05:52:14.499Z,12.78
2022-10-14T05:53:14.517Z,12.78
2022-10-14T05:54:14.528Z,12.78
2022-10-14T05:55:14.538Z,12.78
2022-10-14T05:56:14.562Z,12.79
2022-10-14T05:57:14.568Z,12.78
2022-10-14T05:58:14.573Z,12.77
2022-10-14T05:59:14.583Z,12.78
2022-10-14T06:00:14.594Z,12.78
2022-10-14T06:01:14.597Z,12.80
2022-10-14T06:02:14.614Z,12.81
2022-10-14T06:03:14.711Z,12.83
2022-10-14T06:04:14.642Z,12.82
2022-10-14T06:05:14.675Z,12.83
2022-10-14T06:06:14.653Z,12.83
2022-10-14T06:07:14.659Z,12.85
2022-10-14T06:08:14.666Z,12.86
2022-10-14T06:09:14.672Z,12.86
2022-10-14T06:10:14.685Z,12.86
2022-10-14T06:11:14.691Z,12.88
2022-10-14T06:12:14.702Z,12.88
2022-10-14T06:13:14.705Z,12.91
2022-10-14T06:14:14.715Z,12.90
2022-10-14T06:15:14.719Z,12.91
2022-10-14T06:16:14.726Z,12.92
2022-10-14T06:17:16.467Z,12.93
2022-10-14T06:18:14.743Z,12.93
2022-10-14T06:19:14.747Z,12.92
2022-10-14T06:20:14.754Z,12.91
2022-10-14T06:21:14.759Z,12.91
2022-10-14T06:22:14.765Z,12.89
2022-10-14T06:23:14.770Z,12.90
2022-10-14T06:24:14.777Z,12.91
2022-10-14T06:25:14.783Z,12.91
2022-10-14T06:26:14.789Z,12.91
2022-10-14T06:27:14.797Z,12.92
2022-10-14T06:28:14.837Z,12.94
2022-10-14T06:29:14.807Z,12.92
2022-10-14T06:30:14.812Z,12.93
2022-10-14T06:31:14.824Z,12.93
2022-10-14T06:32:14.827Z,12.94
2022-10-14T06:33:14.832Z,12.93
2022-10-14T06:34:14.841Z,12.94
2022-10-14T06:35:14.845Z,12.94
2022-10-14T06:36:14.855Z,12.93
2022-10-14T06:37:14.861Z,12.94
2022-10-14T06:38:14.889Z,12.93
2022-10-14T06:39:14.884Z,12.93
2022-10-14T06:40:14.897Z,12.92
2022-10-14T06:41:14.900Z,12.91
2022-10-14T06:42:14.908Z,12.91
2022-10-14T06:43:14.910Z,12.92
2022-10-14T06:44:14.924Z,12.91
2022-10-14T06:45:14.929Z,12.95
2022-10-14T06:46:14.939Z,12.93
2022-10-14T06:47:14.948Z,12.95
2022-10-14T06:48:14.958Z,12.94
2022-10-14T06:49:14.962Z,12.97
2022-10-14T06:50:14.969Z,12.98
2022-10-14T06:51:14.974Z,12.99
2022-10-14T06:52:14.980Z,13.00
2022-10-14T06:53:14.988Z,13.01
2022-10-14T06:54:14.992Z,13.04
2022-10-14T06:55:14.996Z,13.06
2022-10-14T06:56:15.002Z,13.08
2022-10-14T06:57:15.008Z,13.09
2022-10-14T06:58:15.015Z,13.11
2022-10-14T06:59:15.020Z,13.12
2022-10-14T07:00:15.028Z,13.12
2022-10-14T07:01:15.040Z,13.14
2022-10-14T07:02:15.038Z,13.17
2022-10-14T07:03:15.043Z,13.18
2022-10-14T07:04:15.050Z,13.20
2022-10-14T07:05:15.055Z,13.20
2022-10-14T07:06:15.064Z,13.22
2022-10-14T07:07:15.068Z,13.22
2022-10-14T07:08:15.431Z,13.24
2022-10-14T07:09:15.080Z,13.24
2022-10-14T07:10:15.085Z,13.26
2022-10-14T07:11:15.091Z,13.27
2022-10-14T07:12:15.099Z,13.28
2022-10-14T07:13:15.128Z,13.31
2022-10-14T07:14:15.140Z,13.32
2022-10-14T07:15:15.116Z,13.34
2022-10-14T07:16:15.125Z,13.35
2022-10-14T07:17:15.131Z,13.38
2022-10-14T07:18:15.140Z,13.36
2022-10-14T07:19:15.143Z,13.37
2022-10-14T07:20:15.165Z,13.38
2022-10-14T07:21:15.155Z,13.38
2022-10-14T07:22:15.166Z,13.39
2022-10-14T07:23:15.171Z,13.40
2022-10-14T07:24:15.174Z,13.42
2022-10-14T07:25:15.182Z,13.43
2022-10-14T07:26:15.185Z,13.45
2022-10-14T07:27:15.192Z,13.47
2022-10-14T07:28:15.259Z,13.49
2022-10-14T07:29:15.207Z,13.52
2022-10-14T07:30:16.775Z,13.51
2022-10-14T07:31:15.218Z,13.53
2022-10-14T07:32:15.438Z,13.55
2022-10-14T07:33:15.234Z,13.55
2022-10-14T07:34:15.239Z,13.58
2022-10-14T07:35:15.242Z,13.59
2022-10-14T07:36:17.153Z,13.59
2022-10-14T07:37:15.254Z,13.61
2022-10-14T07:38:15.262Z,13.62
2022-10-14T07:39:15.268Z,13.61
2022-10-14T07:40:15.272Z,13.65
2022-10-14T07:41:15.280Z,13.67
2022-10-14T07:42:15.473Z,13.69
2022-10-14T07:43:15.291Z,13.73
2022-10-14T07:44:15.297Z,13.77
2022-10-14T07:45:15.302Z,13.79
2022-10-14T07:46:15.308Z,13.84
2022-10-14T07:47:15.399Z,13.87
2022-10-14T07:48:19.599Z,13.90
2022-10-14T07:49:15.329Z,13.92
2022-10-14T07:50:15.333Z,13.93
2022-10-14T07:51:15.337Z,13.96
2022-10-14T07:52:15.368Z,13.99
2022-10-14T07:53:15.356Z,14.03
2022-10-14T07:54:15.359Z,14.05
2022-10-14T07:55:15.366Z,14.08
2022-10-14T07:56:15.371Z,14.09
2022-10-14T07:57:15.377Z,14.09
2022-10-14T07:58:15.385Z,14.09
2022-10-14T07:59:15.390Z,14.10
2022-10-14T08:00:15.404Z,14.12
2022-10-14T08:01:15.642Z,14.12
2022-10-14T08:02:15.519Z,14.11
2022-10-14T08:03:15.417Z,14.11
2022-10-14T08:04:15.420Z,14.10
2022-10-14T08:06:15.446Z,14.11
2022-10-14T08:07:15.439Z,14.12
2022-10-14T08:08:15.445Z,14.13
2022-10-14T08:09:15.523Z,14.14
2022-10-14T08:10:15.464Z,14.12
2022-10-14T08:11:15.472Z,14.11
2022-10-14T08:12:15.510Z,14.10
2022-10-14T08:13:15.483Z,14.10
2022-10-14T08:14:15.489Z,14.08
2022-10-14T08:15:15.506Z,14.06
2022-10-14T08:16:15.512Z,14.04
2022-10-14T08:17:15.518Z,14.04
2022-10-14T08:18:15.525Z,14.03
2022-10-14T08:19:15.530Z,14.03
2022-10-14T08:20:15.578Z,13.99
2022-10-14T08:21:15.543Z,13.99
2022-10-14T08:22:15.548Z,13.97
2022-10-14T08:23:17.441Z,13.97
2022-10-14T08:24:15.561Z,13.96
2022-10-14T08:25:15.568Z,13.96
2022-10-14T08:26:15.580Z,13.99
2022-10-14T08:27:15.579Z,13.99
2022-10-14T08:28:15.660Z,14.01
2022-10-14T08:29:15.591Z,14.05
2022-10-14T08:30:15.600Z,14.06
2022-10-14T08:31:15.611Z,14.09
2022-10-14T08:32:15.613Z,14.11
2022-10-14T08:33:15.615Z,14.12
2022-10-14T08:34:15.622Z,14.13
2022-10-14T08:35:15.637Z,14.18
2022-10-14T08:36:15.640Z,14.20
2022-10-14T08:37:15.641Z,14.22
2022-10-14T08:38:15.656Z,14.27
2022-10-14T08:39:15.659Z,14.34
2022-10-14T08:40:15.685Z,14.40
2022-10-14T08:41:15.677Z,14.47
2022-10-14T08:42:15.689Z,14.51
2022-10-14T08:43:15.696Z,14.57
2022-10-14T08:44:15.708Z,14.63
2022-10-14T08:45:15.712Z,14.71
2022-10-14T08:46:15.724Z,14.73
2022-10-14T08:47:15.743Z,14.79
2022-10-14T08:48:15.740Z,14.86
2022-10-14T08:49:15.745Z,14.95
2022-10-14T08:50:15.754Z,15.05
2022-10-14T08:51:15.759Z,15.16
2022-10-14T08:52:15.811Z,15.25
2022-10-14T08:53:15.775Z,15.34
2022-10-14T08:54:15.786Z,15.43
2022-10-14T08:55:15.794Z,15.49
2022-10-14T08:56:15.803Z,15.53
2022-10-14T08:57:15.810Z,15.56
2022-10-14T08:58:15.981Z,15.58
2022-10-14T08:59:15.824Z,15.60
2022-10-14T09:00:15.842Z,15.65
2022-10-14T09:01:15.848Z,15.65
2022-10-14T09:02:15.856Z,15.67
2022-10-14T09:03:15.884Z,15.72
2022-10-14T09:04:15.924Z,15.83
2022-10-14T09:05:15.878Z,15.91
2022-10-14T09:06:15.885Z,16.01
2022-10-14T09:07:15.891Z,16.08
2022-10-14T09:08:15.905Z,16.14
2022-10-14T09:09:15.908Z,16.18
2022-10-14T09:10:15.916Z,16.25
2022-10-14T09:11:15.923Z,16.28
2022-10-14T09:12:15.935Z,16.28
2022-10-14T09:13:15.941Z,16.36
2022-10-14T09:14:15.949Z,16.41
2022-10-14T09:15:15.955Z,16.51
2022-10-14T09:16:15.961Z,16.60
2022-10-14T09:17:15.965Z,16.67
2022-10-14T09:18:15.972Z,16.77
2022-10-14T09:19:15.979Z,16.90
2022-10-14T09:20:15.984Z,17.01
2022-10-14T09:21:22.645Z,17.09
2022-10-14T09:22:15.995Z,17.17
2022-10-14T09:23:16.001Z,17.19
2022-10-14T09:24:16.008Z,17.20
2022-10-14T09:25:16.014Z,17.20
2022-10-14T09:26:16.020Z,17.16
2022-10-14T09:27:16.025Z,17.08
2022-10-14T09:28:16.058Z,16.99
2022-10-14T09:29:16.039Z,16.89
2022-10-14T09:30:16.047Z,16.83
2022-10-14T09:31:16.052Z,16.69
2022-10-14T09:32:16.060Z,16.61
2022-10-14T09:33:16.065Z,16.51
2022-10-14T09:34:16.071Z,16.43
2022-10-14T09:35:16.077Z,16.36
2022-10-14T09:36:16.082Z,16.29
2022-10-14T09:37:16.089Z,16.24
2022-10-14T09:38:16.095Z,16.19
2022-10-14T09:39:16.102Z,16.17
2022-10-14T09:40:16.112Z,16.14
2022-10-14T09:41:16.113Z,16.14
2022-10-14T09:42:16.119Z,16.20
2022-10-14T09:43:16.125Z,16.17
2022-10-14T09:44:16.139Z,16.14
2022-10-14T09:45:16.136Z,16.09
2022-10-14T09:46:16.144Z,16.08
2022-10-14T09:47:16.149Z,16.02
2022-10-14T09:48:16.154Z,15.97
2022-10-14T09:49:16.160Z,15.93
2022-10-14T09:50:16.168Z,15.89
2022-10-14T09:51:16.173Z,15.90
2022-10-14T09:52:16.179Z,15.91
2022-10-14T09:53:16.184Z,15.95
2022-10-14T09:54:16.194Z,16.00
2022-10-14T09:55:16.196Z,16.05
2022-10-14T09:56:17.290Z,16.08
2022-10-14T09:57:16.206Z,16.13
2022-10-14T09:58:16.213Z,16.19
2022-10-14T09:59:16.222Z,16.28
2022-10-14T10:00:16.229Z,16.42
2022-10-14T10:01:16.237Z,16.53
2022-10-14T10:02:16.244Z,16.63
2022-10-14T10:03:17.182Z,16.71
2022-10-14T10:04:16.262Z,16.73
2022-10-14T10:05:16.271Z,16.77
2022-10-14T10:06:16.276Z,16.84
2022-10-14T10:07:16.288Z,16.85
2022-10-14T10:08:16.294Z,16.87
2022-10-14T10:09:16.296Z,16.88
2022-10-14T10:10:16.306Z,16.88
2022-10-14T10:11:16.312Z,16.83
2022-10-14T10:12:16.322Z,16.80
2022-10-14T10:14:16.340Z,16.75
2022-10-14T10:15:16.350Z,16.75
2022-10-14T10:16:16.359Z,16.68
2022-10-14T10:17:16.363Z,16.69
2022-10-14T10:18:16.370Z,16.69
2022-10-14T10:19:16.379Z,16.69
2022-10-14T10:20:16.437Z,16.68
2022-10-14T10:21:16.393Z,16.65
2022-10-14T10:22:16.453Z,16.62
2022-10-14T10:23:16.403Z,16.62
2022-10-14T10:24:16.421Z,16.58
2022-10-14T10:25:16.416Z,16.50
2022-10-14T10:26:16.424Z,16.50
2022-10-14T10:27:16.427Z,16.47
2022-10-14T10:28:16.511Z,16.49
2022-10-14T10:29:16.438Z,16.56
2022-10-14T10:30:16.574Z,16.64
2022-10-14T10:31:16.620Z,16.69
2022-10-14T10:32:16.459Z,16.77
2022-10-14T10:33:16.465Z,16.77
2022-10-14T10:34:16.479Z,16.85
2022-10-14T10:35:16.483Z,16.95
2022-10-14T10:36:16.535Z,17.11
2022-10-14T10:37:16.496Z,17.23
2022-10-14T10:38:16.503Z,17.37
2022-10-14T10:39:16.508Z,17.51
2022-10-14T10:40:16.629Z,17.62
2022-10-14T10:41:16.525Z,17.69
2022-10-14T10:42:16.528Z,17.75
2022-10-14T10:43:16.539Z,17.81
2022-10-14T10:44:16.541Z,17.83
2022-10-14T10:45:16.551Z,17.84
2022-10-14T10:46:16.555Z,17.82
2022-10-14T10:47:16.561Z,17.83
2022-10-14T10:48:16.566Z,17.82
2022-10-14T10:49:16.574Z,17.82
2022-10-14T10:50:16.635Z,17.82
2022-10-14T10:51:16.588Z,17.83
2022-10-14T10:52:18.793Z,17.80
2022-10-14T10:53:16.602Z,17.82
2022-10-14T10:54:16.609Z,17.88
2022-10-14T10:55:16.615Z,17.92
2022-10-14T10:56:16.622Z,17.95
2022-10-14T10:57:16.632Z,17.98
2022-10-14T10:58:16.635Z,18.00
2022-10-14T10:59:16.755Z,18.01
2022-10-14T11:00:16.752Z,17.96
2022-10-14T11:01:16.794Z,17.90
2022-10-14T11:02:16.660Z,17.82
2022-10-14T11:03:16.668Z,17.82
2022-10-14T11:04:16.674Z,17.83
2022-10-14T11:05:16.681Z,17.88
2022-10-14T11:06:16.687Z,17.91
2022-10-14T11:07:16.695Z,17.95
2022-10-14T11:08:16.705Z,17.96
2022-10-14T11:09:16.705Z,17.94
2022-10-14T11:10:16.801Z,17.95
2022-10-14T11:11:16.717Z,17.94
2022-10-14T11:12:16.728Z,17.94
2022-10-14T11:13:16.738Z,17.99
2022-10-14T11:14:16.738Z,18.05
2022-10-14T11:15:16.748Z,18.15
2022-10-14T11:16:16.757Z,18.25
2022-10-14T11:17:16.766Z,18.31
2022-10-14T11:18:16.766Z,18.27
2022-10-14T11:19:16.776Z,18.17
2022-10-14T11:20:16.783Z,18.11
2022-10-14T11:21:16.790Z,18.06
2022-10-14T11:22:16.803Z,18.05
2022-10-14T11:23:16.811Z,18.09
2022-10-14T11:25:16.826Z,18.11
2022-10-14T11:26:16.834Z,18.19
2022-10-14T11:27:18.619Z,18.26
2022-10-14T11:28:16.913Z,18.24
2022-10-14T11:29:16.857Z,18.31
2022-10-14T11:30:16.865Z,18.35
2022-10-14T11:31:16.874Z,18.37
2022-10-14T11:32:16.881Z,18.39
2022-10-14T11:33:16.885Z,18.41
2022-10-14T11:34:16.950Z,18.42
2022-10-14T11:35:16.905Z,18.39
2022-10-14T11:36:16.922Z,18.41
2022-10-14T11:37:16.918Z,18.41
2022-10-14T11:38:16.922Z,18.38
2022-10-14T11:39:16.936Z,18.30
2022-10-14T11:40:16.943Z,18.19
2022-10-14T11:41:16.950Z,18.05
2022-10-14T11:42:16.954Z,17.93
2022-10-14T11:43:16.964Z,17.84
2022-10-14T11:44:16.968Z,17.77
2022-10-14T11:45:18.660Z,17.70
2022-10-14T11:46:16.977Z,17.65
2022-10-14T11:47:16.983Z,17.57
2022-10-14T11:48:16.990Z,17.55
2022-10-14T11:49:16.996Z,17.48
2022-10-14T11:50:17.013Z,17.45
2022-10-14T11:51:17.018Z,17.37
2022-10-14T11:52:17.030Z,17.27
2022-10-14T11:53:17.030Z,17.27
2022-10-14T11:54:17.035Z,17.21
2022-10-14T11:55:17.042Z,17.20
2022-10-14T11:56:17.047Z,17.19
2022-10-14T11:57:17.051Z,17.24
2022-10-14T11:58:17.059Z,17.27
2022-10-14T11:59:17.065Z,17.29
2022-10-14T12:00:17.130Z,17.32
2022-10-14T12:01:17.073Z,17.35
2022-10-14T12:02:17.167Z,17.36
2022-10-14T12:03:17.084Z,17.35
2022-10-14T12:04:17.091Z,17.39
2022-10-14T12:05:17.096Z,17.42
2022-10-14T12:06:17.099Z,17.46
2022-10-14T12:07:17.103Z,17.47
2022-10-14T12:08:17.120Z,17.49
2022-10-14T12:09:17.121Z,17.52
2022-10-14T12:10:17.128Z,17.55
2022-10-14T12:11:17.129Z,17.57
2022-10-14T12:12:17.137Z,17.60
2022-10-14T12:13:17.143Z,17.59
2022-10-14T12:14:17.147Z,17.57
2022-10-14T12:15:17.243Z,17.60
2022-10-14T12:16:17.163Z,17.54
2022-10-14T12:17:17.676Z,17.48
2022-10-14T12:18:17.179Z,17.52
2022-10-14T12:19:17.190Z,17.61
2022-10-14T12:20:17.211Z,17.65
2022-10-14T12:21:17.205Z,17.72
2022-10-14T12:22:17.413Z,17.79
2022-10-14T12:23:17.220Z,17.85
2022-10-14T12:24:17.231Z,17.87
2022-10-14T12:25:17.235Z,17.88
2022-10-14T12:26:17.243Z,17.87
2022-10-14T12:27:17.260Z,17.82
2022-10-14T12:28:17.305Z,17.79
2022-10-14T12:29:17.269Z,17.73
2022-10-14T12:30:17.274Z,17.68
2022-10-14T12:31:17.279Z,17.61
2022-10-14T12:32:17.295Z,17.53
2022-10-14T12:33:21.690Z,17.48
2022-10-14T12:34:17.307Z,17.41
2022-10-14T12:35:17.305Z,17.35
2022-10-14T12:36:17.312Z,17.28
2022-10-14T12:37:17.322Z,17.19
2022-10-14T12:38:17.327Z,17.11
2022-10-14T12:39:17.343Z,17.03
2022-10-14T12:40:17.342Z,16.98
2022-10-14T12:41:17.361Z,16.98
2022-10-14T12:42:17.368Z,17.00
2022-10-14T12:43:17.367Z,17.06
2022-10-14T12:44:17.371Z,17.09
2022-10-14T12:45:17.380Z,17.13
2022-10-14T12:46:17.387Z,17.14
2022-10-14T12:47:17.397Z,17.12
2022-10-14T12:48:17.400Z,17.10
2022-10-14T12:49:17.406Z,17.04
2022-10-14T12:50:17.419Z,16.93
2022-10-14T12:51:17.428Z,16.85
2022-10-14T12:52:17.436Z,16.76
2022-10-14T12:53:17.441Z,16.67
2022-10-14T12:54:17.450Z,16.59
2022-10-14T12:55:17.456Z,16.45
2022-10-14T12:56:17.467Z,16.37
2022-10-14T12:57:17.472Z,16.32
2022-10-14T12:58:17.482Z,16.24
2022-10-14T12:59:17.490Z,16.19
2022-10-14T13:00:17.499Z,16.15
2022-10-14T13:01:17.536Z,16.15
2022-10-14T13:02:17.514Z,16.17
2022-10-14T13:03:17.522Z,16.22
2022-10-14T13:04:19.157Z,16.23
2022-10-14T13:05:17.543Z,16.26
2022-10-14T13:06:17.554Z,16.34
2022-10-14T13:07:35.549Z,16.40
2022-10-14T13:08:17.564Z,16.49
2022-10-14T13:09:17.576Z,16.55
2022-10-14T13:10:17.579Z,16.60
2022-10-14T13:11:17.587Z,16.62
2022-10-14T13:12:17.594Z,16.64
2022-10-14T13:13:17.600Z,16.68
2022-10-14T13:14:17.605Z,16.74